createdAt,value
2022-12-16T00:01:27.491Z,50.05
2022-12-16T00:03:58.063Z,50.40
2022-12-16T00:06:30.099Z,52.00
2022-12-16T00:08:59.767Z,58.92
2022-12-16T00:11:27.965Z,62.45
2022-12-16T00:13:55.526Z,59.48
2022-12-16T00:16:23.079Z,57.38
2022-12-16T00:18:51.991Z,58.25
2022-12-16T00:21:20.307Z,53.68
2022-12-16T00:23:48.343Z,53.78
2022-12-16T00:26:16.242Z,49.55
2022-12-16T00:28:44.089Z,51.45
2022-12-16T00:31:12.730Z,53.68
2022-12-16T00:33:41.059Z,53.63
2022-12-16T00:36:10.091Z,53.10
2022-12-16T00:38:38.151Z,53.10
2022-12-16T00:41:05.972Z,55.58
2022-12-16T00:43:34.198Z,51.15
2022-12-16T00:46:02.260Z,53.65
2022-12-16T00:48:30.194Z,52.30
2022-12-16T00:50:57.693Z,57.60
2022-12-16T00:53:25.720Z,60.92
2022-12-16T00:56:02.878Z,52.98
2022-12-16T00:58:30.711Z,51.73
2022-12-16T01:00:58.456Z,50.12
2022-12-16T01:03:26.451Z,52.85
2022-12-16T01:05:54.146Z,51.90
2022-12-16T01:08:21.707Z,51.48
2022-12-16T01:10:55.896Z,53.92
2022-12-16T01:13:25.601Z,52.45
2022-12-16T01:15:53.233Z,53.48
2022-12-16T01:18:21.666Z,53.85
2022-12-16T01:20:49.149Z,51.90
2022-12-16T01:23:17.414Z,54.80
2022-12-16T01:25:45.264Z,52.73
2022-12-16T01:28:12.917Z,53.80
2022-12-16T01:30:40.587Z,52.65
2022-12-16T01:33:09.460Z,56.73
2022-12-16T01:35:54.899Z,56.18
2022-12-16T01:38:06.411Z,57.58
2022-12-16T01:40:34.350Z,58.15
2022-12-16T01:43:01.554Z,58.92
2022-12-16T01:45:35.852Z,59.13
2022-12-16T01:48:24.167Z,56.25
2022-12-16T01:50:56.452Z,51.50
2022-12-16T01:53:24.627Z,54.08
2022-12-16T01:55:54.882Z,53.00
2022-12-16T01:58:27.010Z,51.28
2022-12-16T02:00:54.953Z,52.73
2022-12-16T02:03:22.975Z,54.80
2022-12-16T02:05:51.770Z,54.08
2022-12-16T02:08:20.409Z,51.35
2022-12-16T02:11:02.740Z,50.83
2022-12-16T02:13:47.936Z,49.08
2022-12-16T02:16:35.578Z,49.20
2022-12-16T02:19:25.364Z,49.88
2022-12-16T02:22:09.971Z,47.70
2022-12-16T02:25:22.912Z,43.98
2022-12-16T02:28:08.566Z,42.83
2022-12-16T02:30:53.704Z,39.80
2022-12-16T02:33:37.575Z,37.23
2022-12-16T02:36:25.753Z,39.83
2022-12-16T02:39:00.915Z,36.08
2022-12-16T02:42:03.229Z,36.15
2022-12-16T02:44:55.949Z,35.17
2022-12-16T02:47:24.771Z,31.27
2022-12-16T02:49:54.715Z,31.25
2022-12-16T02:52:29.803Z,30.55
2022-12-16T02:55:05.044Z,29.90
2022-12-16T03:00:14.617Z,28.95
2022-12-16T03:02:47.809Z,28.70
2022-12-16T03:05:36.050Z,29.15
2022-12-16T03:08:13.351Z,27.32
2022-12-16T03:10:55.615Z,24.57
2022-12-16T03:13:25.287Z,26.97
2022-12-16T03:15:56.528Z,24.18
2022-12-16T03:18:25.375Z,23.10
2022-12-16T03:20:58.309Z,22.30
2022-12-16T03:23:39.680Z,21.50
2022-12-16T03:26:13.711Z,21.50
2022-12-16T03:28:49.595Z,20.15
2022-12-16T03:31:44.164Z,18.42
2022-12-16T03:34:37.359Z,18.55
2022-12-16T03:37:09.273Z,16.87
2022-12-16T03:39:42.366Z,14.45
2022-12-16T03:42:14.541Z,12.93
2022-12-16T03:44:45.882Z,14.13
2022-12-16T03:47:18.342Z,13.20
2022-12-16T03:49:44.997Z,12.55
2022-12-16T03:52:12.856Z,12.05
2022-12-16T03:54:40.397Z,11.45
2022-12-16T03:57:14.759Z,11.95
2022-12-16T03:59:38.071Z,10.45
2022-12-16T04:02:05.750Z,11.33
2022-12-16T04:04:33.895Z,11.57
2022-12-16T04:07:19.834Z,11.48
2022-12-16T04:12:34.884Z,13.15
2022-12-16T04:15:22.364Z,12.80
2022-12-16T04:18:08.972Z,10.15
2022-12-16T04:21:00.030Z,10.63
2022-12-16T04:23:49.228Z,11.15
2022-12-16T04:26:17.087Z,11.33
2022-12-16T04:28:44.603Z,11.08
2022-12-16T04:31:12.393Z,11.88
2022-12-16T04:33:59.336Z,12.07
2022-12-16T04:36:45.353Z,11.53
2022-12-16T04:39:31.542Z,11.70
2022-12-16T04:42:17.649Z,11.88
2022-12-16T04:45:03.790Z,11.40
2022-12-16T04:47:54.122Z,12.47
2022-12-16T04:50:21.242Z,13.15
2022-12-16T04:53:10.157Z,15.50
2022-12-16T04:56:02.099Z,14.65
2022-12-16T04:58:44.373Z,13.22
2022-12-16T05:01:30.718Z,12.82
2022-12-16T05:04:17.108Z,13.35
2022-12-16T05:07:03.162Z,13.32
2022-12-16T05:09:41.621Z,11.50
2022-12-16T05:12:28.127Z,12.15
2022-12-16T05:15:14.461Z,10.18
2022-12-16T05:18:03.183Z,9.53
2022-12-16T05:20:49.570Z,10.10
2022-12-16T05:23:36.094Z,10.25
2022-12-16T05:26:25.327Z,10.35
2022-12-16T05:29:11.558Z,11.05
2022-12-16T05:31:57.640Z,11.55
2022-12-16T05:34:43.987Z,10.50
2022-12-16T05:37:29.983Z,11.60
2022-12-16T05:40:16.166Z,12.25
2022-12-16T05:43:06.116Z,13.15
2022-12-16T05:45:52.470Z,11.38
2022-12-16T05:48:41.961Z,10.85
2022-12-16T05:51:26.888Z,11.28
2022-12-16T05:54:13.197Z,10.40
2022-12-16T05:56:59.556Z,11.00
2022-12-16T05:59:45.893Z,10.58
2022-12-16T06:02:31.917Z,11.95
2022-12-16T06:05:18.424Z,12.55
2022-12-16T06:08:11.373Z,13.72
2022-12-16T06:10:57.685Z,13.30
2022-12-16T06:13:44.100Z,14.47
2022-12-16T06:16:30.814Z,15.15
2022-12-16T06:19:17.419Z,18.57
2022-12-16T06:22:05.570Z,14.38
2022-12-16T06:24:51.889Z,15.10
2022-12-16T06:27:38.201Z,13.72
2022-12-16T06:30:28.806Z,11.53
2022-12-16T06:33:14.807Z,12.70
2022-12-16T06:38:36.960Z,12.10
2022-12-16T06:41:23.334Z,9.95
2022-12-16T06:44:10.241Z,10.43
2022-12-16T06:46:56.300Z,9.73
2022-12-16T06:49:42.054Z,9.78
2022-12-16T06:52:28.915Z,8.73
2022-12-16T06:55:16.166Z,8.98
2022-12-16T06:58:06.785Z,10.18
2022-12-16T07:00:52.417Z,14.47
2022-12-16T07:03:38.762Z,11.70
2022-12-16T07:06:25.551Z,10.82
2022-12-16T07:09:11.363Z,12.58
2022-12-16T07:11:59.506Z,12.00
2022-12-16T07:14:45.951Z,11.15
2022-12-16T07:17:32.093Z,12.13
2022-12-16T07:20:17.899Z,11.48
2022-12-16T07:23:13.075Z,10.85
2022-12-16T07:25:52.980Z,11.78
2022-12-16T07:28:38.762Z,10.90
2022-12-16T07:34:11.193Z,11.33
2022-12-16T07:36:58.412Z,11.50
2022-12-16T07:39:48.821Z,10.32
2022-12-16T07:42:32.889Z,11.53
2022-12-16T07:45:19.199Z,10.98
2022-12-16T07:48:07.239Z,12.93
2022-12-16T07:50:55.013Z,13.25
2022-12-16T07:53:42.804Z,13.05
2022-12-16T07:56:29.028Z,12.88
2022-12-16T07:59:17.398Z,12.33
2022-12-16T08:02:03.645Z,10.90
2022-12-16T08:04:51.392Z,12.35
2022-12-16T08:07:39.135Z,11.38
2022-12-16T08:10:26.306Z,12.18
2022-12-16T08:13:25.885Z,13.13
2022-12-16T08:16:10.493Z,10.35
2022-12-16T08:18:56.406Z,10.38
2022-12-16T08:21:42.578Z,9.40
2022-12-16T08:24:29.225Z,12.25
2022-12-16T08:27:15.868Z,11.20
2022-12-16T08:30:01.840Z,9.90
2022-12-16T08:32:47.601Z,12.45
2022-12-16T08:42:06.518Z,10.65
2022-12-16T08:44:54.427Z,10.60
2022-12-16T08:47:40.605Z,12.28
2022-12-16T08:50:28.018Z,14.95
2022-12-16T08:53:14.040Z,12.68
2022-12-16T08:56:00.851Z,14.28
2022-12-16T08:58:47.184Z,14.55
2022-12-16T09:01:35.487Z,13.65
2022-12-16T09:04:22.720Z,13.95
2022-12-16T09:07:09.086Z,12.33
2022-12-16T09:09:55.287Z,11.60
2022-12-16T09:12:41.028Z,11.63
2022-12-16T09:15:28.251Z,11.88
2022-12-16T09:18:15.148Z,13.50
2022-12-16T09:21:01.309Z,13.13
2022-12-16T09:26:33.096Z,10.72
2022-12-16T09:29:18.890Z,10.38
2022-12-16T09:34:54.326Z,11.63
2022-12-16T09:37:41.474Z,10.82
2022-12-16T09:40:31.748Z,11.75
2022-12-16T09:43:39.879Z,12.47
2022-12-16T09:47:08.399Z,12.78
2022-12-16T09:50:06.614Z,12.45
2022-12-16T09:53:07.369Z,12.73
2022-12-16T09:55:59.112Z,12.07
2022-12-16T09:58:52.778Z,10.63
2022-12-16T10:01:40.498Z,10.72
2022-12-16T10:04:27.018Z,11.70
2022-12-16T10:07:17.306Z,10.82
2022-12-16T10:10:40.669Z,8.38
2022-12-16T10:13:51.533Z,7.47
2022-12-16T10:16:53.183Z,7.83
2022-12-16T10:19:53.159Z,9.68
2022-12-16T10:22:49.309Z,10.05
2022-12-16T10:25:43.787Z,9.45
2022-12-16T10:28:37.620Z,9.77
2022-12-16T10:31:33.421Z,10.93
2022-12-16T10:34:20.152Z,11.88
2022-12-16T10:37:12.340Z,11.22
2022-12-16T10:40:05.212Z,11.97
2022-12-16T10:43:07.894Z,10.72
2022-12-16T10:46:01.512Z,11.93
2022-12-16T10:48:54.981Z,11.95
2022-12-16T10:51:41.316Z,12.93
2022-12-16T10:54:45.129Z,14.78
2022-12-16T10:57:54.594Z,13.65
2022-12-16T11:01:02.374Z,12.80
2022-12-16T11:03:52.060Z,12.50
2022-12-16T11:06:46.954Z,12.63
2022-12-16T11:09:47.023Z,13.78
2022-12-16T11:12:43.855Z,14.70
2022-12-16T11:15:44.118Z,16.12
2022-12-16T11:18:40.269Z,16.40
2022-12-16T11:21:33.708Z,14.47
2022-12-16T11:24:37.802Z,15.85
2022-12-16T11:27:33.557Z,14.07
2022-12-16T11:30:24.261Z,12.13
2022-12-16T11:33:15.327Z,14.05
2022-12-16T11:36:11.658Z,12.58
2022-12-16T11:39:06.846Z,15.45
2022-12-16T11:42:02.850Z,10.85
2022-12-16T11:45:00.278Z,9.58
2022-12-16T11:48:03.463Z,12.40
2022-12-16T11:50:55.461Z,12.78
2022-12-16T11:54:12.198Z,13.30
2022-12-16T12:00:13.510Z,12.13
2022-12-16T12:03:31.097Z,10.98
2022-12-16T12:06:46.868Z,10.23
2022-12-16T12:09:40.819Z,8.40
2022-12-16T12:12:47.348Z,9.13
2022-12-16T12:16:12.320Z,11.45
2022-12-16T12:19:03.647Z,12.35
2022-12-16T12:22:10.358Z,11.22
2022-12-16T12:28:08.707Z,10.98
2022-12-16T12:31:03.217Z,12.45
2022-12-16T12:33:57.780Z,12.98
2022-12-16T12:36:49.229Z,12.07
2022-12-16T12:40:01.606Z,12.70
2022-12-16T12:43:08.181Z,12.13
2022-12-16T12:46:51.993Z,12.18
2022-12-16T12:49:49.676Z,12.05
2022-12-16T12:52:33.823Z,11.83
2022-12-16T12:55:26.092Z,14.55
2022-12-16T12:58:15.704Z,18.60
2022-12-16T13:01:07.249Z,16.57
2022-12-16T13:04:00.715Z,13.88
2022-12-16T13:06:58.090Z,10.95
2022-12-16T13:09:56.569Z,11.15
2022-12-16T13:12:51.213Z,10.38
2022-12-16T13:15:56.861Z,12.30
2022-12-16T13:18:50.791Z,11.30
2022-12-16T13:22:00.845Z,10.53
2022-12-16T13:24:57.086Z,12.05
2022-12-16T13:27:45.220Z,12.43
2022-12-16T13:30:36.643Z,13.38
2022-12-16T13:33:48.712Z,13.03
2022-12-16T13:36:36.580Z,13.05
2022-12-16T13:39:42.368Z,10.95
2022-12-16T13:43:01.801Z,11.22
2022-12-16T13:45:58.326Z,10.53
2022-12-16T13:51:58.580Z,8.70
2022-12-16T13:55:14.303Z,7.47
2022-12-16T13:58:03.714Z,10.90
2022-12-16T14:00:54.862Z,11.05
2022-12-16T14:04:08.114Z,10.82
2022-12-16T14:06:57.385Z,12.20
2022-12-16T14:09:59.615Z,10.48
2022-12-16T14:13:06.304Z,9.80
2022-12-16T14:18:55.671Z,7.35
2022-12-16T14:21:52.622Z,5.55
2022-12-16T14:24:45.034Z,5.70
2022-12-16T14:27:35.705Z,5.35
2022-12-16T14:30:37.753Z,5.08
2022-12-16T14:33:47.591Z,6.00
2022-12-16T14:36:48.883Z,7.22
2022-12-16T14:39:46.558Z,7.30
2022-12-16T14:42:45.941Z,8.73
2022-12-16T14:45:46.062Z,8.75
2022-12-16T14:48:41.005Z,7.35
2022-12-16T14:51:56.071Z,5.83
2022-12-16T14:55:02.790Z,6.33
2022-12-16T14:57:50.777Z,6.62
2022-12-16T15:00:42.007Z,6.78
2022-12-16T15:03:52.233Z,7.78
2022-12-16T15:06:55.552Z,7.42
2022-12-16T15:09:51.538Z,7.80
2022-12-16T15:15:34.415Z,6.50
2022-12-16T15:18:21.829Z,6.20
2022-12-16T15:21:11.779Z,6.70
2022-12-16T15:24:03.230Z,6.25
2022-12-16T15:26:52.418Z,6.80
2022-12-16T15:29:56.921Z,6.17
2022-12-16T15:32:50.323Z,6.87
2022-12-16T15:35:41.851Z,5.70
2022-12-16T15:38:49.650Z,5.75
2022-12-16T15:41:44.005Z,5.65
2022-12-16T15:44:36.091Z,5.67
2022-12-16T15:47:22.928Z,6.30
2022-12-16T15:50:09.357Z,7.50
2022-12-16T15:53:03.131Z,7.33
2022-12-16T15:56:02.553Z,7.05
2022-12-16T15:58:54.237Z,6.72
2022-12-16T16:01:43.638Z,7.00
2022-12-16T16:04:48.882Z,6.50
2022-12-16T16:07:40.279Z,6.85
2022-12-16T16:10:42.673Z,6.28
2022-12-16T16:13:29.474Z,6.55
2022-12-16T16:16:16.460Z,6.25
2022-12-16T16:19:04.721Z,5.62
2022-12-16T16:21:50.902Z,5.87
2022-12-16T16:24:37.032Z,5.90
2022-12-16T16:27:27.987Z,6.05
2022-12-16T16:30:15.430Z,7.25
2022-12-16T16:33:02.189Z,7.95
2022-12-16T16:35:51.058Z,7.60
2022-12-16T16:38:37.620Z,7.28
2022-12-16T16:41:32.370Z,7.37
2022-12-16T16:44:19.939Z,7.70
2022-12-16T16:47:06.277Z,9.93
2022-12-16T16:50:00.861Z,10.38
2022-12-16T16:52:47.710Z,9.65
2022-12-16T16:55:42.710Z,9.25
2022-12-16T16:58:48.281Z,9.23
2022-12-16T17:01:36.231Z,8.90
2022-12-16T17:04:22.799Z,8.38
2022-12-16T17:07:08.894Z,7.95
2022-12-16T17:09:54.946Z,8.75
2022-12-16T17:12:46.914Z,9.25
2022-12-16T17:15:46.392Z,10.13
2022-12-16T17:18:34.161Z,9.05
2022-12-16T17:21:21.806Z,9.03
2022-12-16T17:24:08.188Z,7.65
2022-12-16T17:26:59.315Z,6.92
2022-12-16T17:29:47.267Z,7.33
2022-12-16T17:32:33.341Z,7.08
2022-12-16T17:35:23.448Z,7.58
2022-12-16T17:38:09.749Z,8.28
2022-12-16T17:40:55.370Z,10.43
2022-12-16T17:46:30.160Z,13.65
2022-12-16T17:49:17.016Z,9.93
2022-12-16T17:52:04.503Z,8.50
2022-12-16T17:54:54.323Z,8.00
2022-12-16T17:57:40.901Z,7.83
2022-12-16T18:00:27.917Z,8.35
2022-12-16T18:03:14.690Z,9.30
2022-12-16T18:06:01.261Z,8.73
2022-12-16T18:08:52.419Z,8.00
2022-12-16T18:11:39.058Z,7.58
2022-12-16T18:14:25.807Z,7.12
2022-12-16T18:17:11.561Z,8.10
2022-12-16T18:19:57.904Z,8.20
2022-12-16T18:22:43.860Z,7.83
2022-12-16T18:25:29.845Z,8.63
2022-12-16T18:28:15.928Z,9.08
2022-12-16T18:31:01.958Z,11.05
2022-12-16T18:33:48.888Z,12.47
2022-12-16T18:36:36.128Z,14.43
2022-12-16T18:39:26.371Z,15.45
2022-12-16T18:42:12.647Z,15.88
2022-12-16T18:45:01.458Z,17.32
2022-12-16T18:47:48.449Z,18.25
2022-12-16T18:50:37.983Z,19.73
2022-12-16T18:53:22.591Z,20.50
2022-12-16T18:56:18.946Z,17.25
2022-12-16T18:59:04.494Z,32.95
2022-12-16T19:01:50.720Z,16.00
2022-12-16T19:04:36.584Z,15.15
2022-12-16T19:07:22.723Z,18.42
2022-12-16T19:10:09.401Z,14.93
2022-12-16T19:12:56.068Z,15.75
2022-12-16T19:15:42.158Z,15.55
2022-12-16T19:18:33.427Z,25.97
2022-12-16T19:21:20.084Z,29.23
2022-12-16T19:24:07.211Z,17.02
2022-12-16T19:26:53.351Z,9.03
2022-12-16T19:29:42.144Z,8.38
2022-12-16T19:32:28.781Z,8.53
2022-12-16T19:35:14.531Z,12.70
2022-12-16T19:38:03.022Z,14.43
2022-12-16T19:40:50.715Z,16.20
2022-12-16T19:43:36.932Z,18.95
2022-12-16T19:46:23.351Z,14.38
2022-12-16T19:49:09.844Z,13.13
2022-12-16T19:51:56.250Z,13.43
2022-12-16T19:54:42.003Z,13.03
2022-12-16T19:57:32.917Z,14.95
2022-12-16T20:00:20.012Z,15.68
2022-12-16T20:03:06.502Z,14.35
2022-12-16T20:05:52.993Z,18.85
2022-12-16T20:08:41.494Z,14.98
2022-12-16T20:11:27.967Z,21.25
2022-12-16T20:14:14.490Z,26.65
2022-12-16T20:17:02.346Z,22.02
2022-12-16T20:19:51.505Z,20.65
2022-12-16T20:22:57.474Z,18.57
2022-12-16T20:25:43.821Z,17.40
2022-12-16T20:28:33.181Z,17.00
2022-12-16T20:31:22.835Z,17.00
2022-12-16T20:34:15.379Z,19.75
2022-12-16T20:37:01.781Z,18.77
2022-12-16T20:42:41.287Z,14.80
2022-12-16T20:45:29.130Z,17.42
2022-12-16T20:48:15.820Z,16.67
2022-12-16T20:51:04.040Z,19.23
2022-12-16T20:53:50.356Z,17.07
2022-12-16T20:56:41.765Z,16.52
2022-12-16T20:59:28.423Z,14.85
2022-12-16T21:02:23.201Z,14.35
2022-12-16T21:05:03.856Z,20.75
2022-12-16T21:07:53.047Z,14.25
2022-12-16T21:10:40.619Z,13.83
2022-12-16T21:13:31.359Z,12.43
2022-12-16T21:16:24.274Z,13.32
2022-12-16T21:19:14.420Z,10.05
2022-12-16T21:22:03.311Z,10.25
2022-12-16T21:24:36.430Z,9.08
2022-12-16T21:27:24.387Z,12.15
2022-12-16T21:30:10.850Z,9.38
2022-12-16T21:32:57.289Z,9.40
2022-12-16T21:35:52.670Z,16.57
2022-12-16T21:38:43.467Z,12.10
2022-12-16T21:41:32.739Z,9.28
2022-12-16T21:47:29.426Z,9.95
2022-12-16T21:50:20.899Z,10.03
2022-12-16T21:53:08.222Z,13.70
2022-12-16T21:56:01.885Z,10.45
2022-12-16T21:58:48.954Z,9.35
2022-12-16T22:01:35.614Z,7.97
2022-12-16T22:04:26.019Z,7.53
2022-12-16T22:07:21.699Z,6.22
2022-12-16T22:10:09.893Z,6.05
2022-12-16T22:12:56.940Z,6.72
2022-12-16T22:15:43.840Z,6.15
2022-12-16T22:22:09.630Z,5.95
2022-12-16T22:25:19.100Z,4.53
2022-12-16T22:28:10.643Z,5.05
2022-12-16T22:31:01.796Z,4.25
2022-12-16T22:37:24.240Z,6.22
2022-12-16T22:40:14.070Z,10.75
2022-12-16T22:43:14.289Z,8.25
2022-12-16T22:46:04.013Z,5.47
2022-12-16T22:48:51.935Z,4.42
2022-12-16T22:51:40.271Z,4.55
2022-12-16T22:54:30.153Z,4.95
2022-12-16T22:57:16.209Z,4.92
2022-12-16T23:00:02.523Z,5.17
2022-12-16T23:02:48.134Z,5.45
2022-12-16T23:05:38.723Z,4.90
2022-12-16T23:08:25.727Z,5.95
2022-12-16T23:11:14.820Z,4.72
2022-12-16T23:14:01.619Z,5.37
2022-12-16T23:16:47.619Z,5.37
2022-12-16T23:19:33.512Z,4.90
2022-12-16T23:22:22.123Z,5.33
2022-12-16T23:25:08.667Z,6.37
2022-12-16T23:27:56.350Z,6.05
2022-12-16T23:30:43.629Z,5.95
2022-12-16T23:33:29.693Z,5.25
2022-12-16T23:36:15.744Z,6.03
2022-12-16T23:39:02.142Z,4.50
2022-12-16T23:41:48.414Z,4.00
2022-12-16T23:44:34.847Z,5.33
2022-12-16T23:47:21.286Z,5.42
2022-12-16T23:50:11.140Z,6.50
2022-12-16T23:52:57.589Z,7.30
2022-12-16T23:55:50.329Z,6.15
2022-12-16T23:58:37.700Z,4.53
